Time;durP1;ratioP1;P1;durP2;ratioP2;P2;SDS_P1;SDS_P2;PMS_P1;PMS_P2;Temp;Humidity;BMP_temperature;BMP_pressure;BME280_temperature;BME280_humidity;BME280_pressure;Samples;Min_cycle;Max_cycle;Signal;HPM_P1;HPM_P2
2024/02/19 00:02:07;;;;;;;0.82;0.82;;;7.00;99.90;;;;;;6118152;23;20104;-76
2024/02/19 00:04:33;;;;;;;0.60;0.60;;;7.10;99.90;;;;;;6119719;23;20028;-76
2024/02/19 00:06:59;;;;;;;0.60;0.60;;;7.10;99.90;;;;;;6118523;23;20029;-76
2024/02/19 00:09:24;;;;;;;0.47;0.47;;;7.10;99.90;;;;;;6096143;23;20028;-75
2024/02/19 00:11:50;;;;;;;0.70;0.70;;;7.10;99.90;;;;;;6095316;23;20017;-76
2024/02/19 00:14:15;;;;;;;4.15;2.90;;;7.10;99.90;;;;;;6119598;23;20045;-76
2024/02/19 00:16:42;;;;;;;0.50;0.50;;;7.20;99.90;;;;;;6117832;23;20029;-77
2024/02/19 00:19:07;;;;;;;0.50;0.50;;;7.20;99.90;;;;;;6093983;23;20029;-76
2024/02/19 00:21:33;;;;;;;0.60;0.60;;;7.20;99.90;;;;;;6119503;23;20041;-76
2024/02/19 00:23:59;;;;;;;0.50;0.50;;;7.20;99.90;;;;;;6145342;23;20421;-75
2024/02/19 00:26:24;;;;;;;2.88;0.98;;;7.10;99.90;;;;;;6145577;23;20026;-78
2024/02/19 00:28:51;;;;;;;0.40;0.40;;;7.10;99.90;;;;;;6119144;23;20036;-78
2024/02/19 00:31:16;;;;;;;0.50;0.50;;;7.10;99.90;;;;;;6116794;23;20013;-77
2024/02/19 00:33:42;;;;;;;0.50;0.50;;;7.10;99.90;;;;;;6120107;23;20570;-77
2024/02/19 00:36:09;;;;;;;0.40;0.40;;;7.20;99.90;;;;;;6120136;23;20018;-77
2024/02/19 00:38:35;;;;;;;0.30;0.30;;;7.10;99.90;;;;;;6118954;23;20347;-76
2024/02/19 00:41:03;;;;;;;0.40;0.40;;;7.10;99.90;;;;;;6148173;23;20021;-77
2024/02/19 00:43:30;;;;;;;0.50;0.50;;;7.10;99.90;;;;;;6102176;23;20078;-77
2024/02/19 00:45:56;;;;;;;1.80;1.67;;;7.10;99.90;;;;;;6126140;23;20479;-77
2024/02/19 00:48:22;;;;;;;0.60;0.60;;;7.10;99.90;;;;;;6100476;23;20060;-77
2024/02/19 00:50:48;;;;;;;0.50;0.50;;;7.10;99.90;;;;;;6125976;23;20018;-79
2024/02/19 00:53:14;;;;;;;0.50;0.50;;;7.10;99.90;;;;;;6100446;23;20010;-79
2024/02/19 00:55:39;;;;;;;0.95;0.95;;;7.10;99.90;;;;;;6126057;23;20063;-78
2024/02/19 00:58:05;;;;;;;0.50;0.50;;;7.10;99.90;;;;;;6100698;23;20465;-78
2024/02/19 01:00:31;;;;;;;2.92;1.33;;;7.10;99.90;;;;;;6125235;23;20013;-78
2024/02/19 01:02:58;;;;;;;0.88;0.88;;;7.00;99.90;;;;;;6151343;23;20335;-78
2024/02/19 01:05:25;;;;;;;0.30;0.30;;;7.00;99.90;;;;;;6100756;23;20508;-79
2024/02/19 01:07:51;;;;;;;1.75;1.58;;;7.10;99.90;;;;;;6125527;23;20014;-78
2024/02/19 01:10:17;;;;;;;4.03;3.70;;;7.10;99.90;;;;;;6148875;23;20014;-78
2024/02/19 01:12:42;;;;;;;0.43;0.43;;;7.10;99.90;;;;;;6149060;23;20072;-79
2024/02/19 01:15:09;;;;;;;0.43;0.43;;;7.10;99.90;;;;;;6101621;23;20017;-78
2024/02/19 01:17:34;;;;;;;0.47;0.47;;;7.10;99.90;;;;;;6125372;23;20462;-78
2024/02/19 01:20:00;;;;;;;0.50;0.50;;;7.10;99.90;;;;;;6125426;23;20049;-78
2024/02/19 01:22:27;;;;;;;0.60;0.60;;;7.20;99.90;;;;;;6125073;23;20017;-78
2024/02/19 01:24:54;;;;;;;0.50;0.50;;;7.00;99.90;;;;;;6101382;23;20013;-79
2024/02/19 01:27:19;;;;;;;0.47;0.47;;;7.10;99.90;;;;;;6090524;23;20471;-78
2024/02/19 01:29:46;;;;;;;0.50;0.50;;;7.10;99.90;;;;;;6149812;23;20044;-79
2024/02/19 01:32:12;;;;;;;0.40;0.40;;;7.00;99.90;;;;;;6100438;23;20014;-78
2024/02/19 01:34:37;;;;;;;0.47;0.47;;;7.00;99.90;;;;;;6149552;23;20040;-78
2024/02/19 01:37:04;;;;;;;0.50;0.50;;;7.00;99.90;;;;;;6076874;23;20022;-79
2024/02/19 01:39:30;;;;;;;0.40;0.40;;;7.00;99.90;;;;;;6125216;23;20017;-78
2024/02/19 01:41:56;;;;;;;0.50;0.50;;;7.10;99.90;;;;;;6100678;23;20359;-78
2024/02/19 01:44:22;;;;;;;0.40;0.40;;;7.10;99.90;;;;;;6124184;23;20331;-78
2024/02/19 01:46:49;;;;;;;0.73;0.73;;;7.00;99.90;;;;;;6124828;23;20017;-78
2024/02/19 01:49:15;;;;;;;0.40;0.40;;;7.00;99.90;;;;;;6150717;23;20041;-78
2024/02/19 01:51:41;;;;;;;;;;;7.00;99.90;;;;;;6125521;23;20017;-78
2024/02/19 01:54:09;;;;;;;0.40;0.40;;;7.00;99.90;;;;;;6124916;23;19955;-78
2024/02/19 01:56:37;;;;;;;0.40;0.40;;;7.00;99.90;;;;;;6124394;23;20021;-78
2024/02/19 01:59:06;;;;;;;0.50;0.50;;;7.00;99.90;;;;;;6100564;23;20017;-78
2024/02/19 02:01:36;;;;;;;0.40;0.40;;;7.00;99.90;;;;;;6124391;23;20141;-78
2024/02/19 02:04:03;;;;;;;0.50;0.50;;;7.10;99.90;;;;;;6148860;23;20021;-78
2024/02/19 02:06:28;;;;;;;0.50;0.50;;;7.00;99.90;;;;;;6099646;23;20017;-79
2024/02/19 02:08:55;;;;;;;0.40;0.40;;;7.00;99.90;;;;;;6100485;23;20096;-79
2024/02/19 02:11:21;;;;;;;0.50;0.50;;;6.90;99.90;;;;;;6150395;23;20017;-80
2024/02/19 02:13:46;;;;;;;0.85;0.85;;;7.10;99.90;;;;;;6100035;23;20428;-80
2024/02/19 02:16:22;;;;;;;0.60;0.60;;;7.10;99.90;;;;;;6124819;23;20022;-80
2024/02/19 02:18:48;;;;;;;0.50;0.50;;;7.10;99.90;;;;;;6151881;23;20067;-80
2024/02/19 02:21:16;;;;;;;0.88;0.88;;;7.20;99.90;;;;;;6125007;23;20454;-79
2024/02/19 02:23:41;;;;;;;0.50;0.50;;;7.20;99.90;;;;;;6123988;23;20017;-79
2024/02/19 02:26:07;;;;;;;0.45;0.45;;;7.20;99.90;;;;;;6124756;23;20087;-80
2024/02/19 02:28:33;;;;;;;0.50;0.50;;;7.30;99.90;;;;;;6124626;23;20080;-79
2024/02/19 02:30:59;;;;;;;0.60;0.60;;;7.20;99.90;;;;;;6124833;23;20013;-79
2024/02/19 02:33:24;;;;;;;0.45;0.45;;;7.20;99.90;;;;;;6099867;23;20009;-79
2024/02/19 02:35:50;;;;;;;0.60;0.60;;;7.20;99.90;;;;;;6124700;23;20064;-79
2024/02/19 02:38:16;;;;;;;0.50;0.50;;;7.20;99.90;;;;;;6100462;23;20521;-79
2024/02/19 02:40:41;;;;;;;0.70;0.70;;;7.20;99.90;;;;;;6099790;23;20022;-78
2024/02/19 02:43:07;;;;;;;0.45;0.45;;;7.20;99.90;;;;;;6075812;23;20020;-79
2024/02/19 02:45:34;;;;;;;0.50;0.50;;;7.20;99.90;;;;;;6124361;23;20092;-78
2024/02/19 02:47:59;;;;;;;0.50;0.50;;;7.10;99.90;;;;;;6150710;23;20082;-78
2024/02/19 02:50:25;;;;;;;0.50;0.50;;;7.10;99.90;;;;;;6099920;23;20049;-78
2024/02/19 02:52:51;;;;;;;0.60;0.60;;;7.10;99.90;;;;;;6100670;23;20025;-78
2024/02/19 02:55:16;;;;;;;0.50;0.50;;;7.20;99.90;;;;;;6124921;23;20020;-78
2024/02/19 02:57:43;;;;;;;0.43;0.43;;;7.10;99.90;;;;;;6123983;23;20021;-78
2024/02/19 03:00:11;;;;;;;0.50;0.50;;;7.10;99.90;;;;;;6124831;23;20097;-78
2024/02/19 03:02:37;;;;;;;0.45;0.45;;;7.10;99.90;;;;;;6099733;23;20060;-78
2024/02/19 03:05:03;;;;;;;0.40;0.40;;;7.10;99.90;;;;;;6124553;23;20013;-77
2024/02/19 03:07:29;;;;;;;0.40;0.40;;;7.10;99.90;;;;;;6123666;23;20017;-78
2024/02/19 03:09:56;;;;;;;1.27;1.27;;;7.20;99.90;;;;;;6124437;23;20056;-78
2024/02/19 03:12:22;;;;;;;0.40;0.40;;;7.20;99.90;;;;;;6123779;23;20013;-78
2024/02/19 03:14:48;;;;;;;0.95;0.95;;;7.10;99.90;;;;;;6100374;23;20024;-78
2024/02/19 03:17:13;;;;;;;1.05;1.05;;;7.20;99.90;;;;;;6076511;23;20510;-78
2024/02/19 03:19:41;;;;;;;0.40;0.40;;;7.20;99.90;;;;;;6099457;23;20018;-79
2024/02/19 03:22:07;;;;;;;0.40;0.40;;;7.20;99.90;;;;;;6100514;23;20459;-79
2024/02/19 03:24:34;;;;;;;0.80;0.80;;;7.30;99.90;;;;;;6100032;23;20021;-77
2024/02/19 03:27:01;;;;;;;0.70;0.70;;;7.30;99.90;;;;;;6100052;23;20049;-77
2024/02/19 03:29:28;;;;;;;0.50;0.50;;;7.40;99.90;;;;;;6099741;23;20014;-78
2024/02/19 03:31:54;;;;;;;0.50;0.50;;;7.40;99.90;;;;;;6099436;23;20068;-79
2024/02/19 03:34:19;;;;;;;0.40;0.40;;;7.40;99.90;;;;;;6100888;23;20014;-79
2024/02/19 03:36:49;;;;;;;0.50;0.50;;;7.40;99.90;;;;;;6151417;23;20026;-78
2024/02/19 03:39:15;;;;;;;0.40;0.40;;;7.50;99.90;;;;;;6125969;23;20477;-78
2024/02/19 03:41:41;;;;;;;0.40;0.40;;;7.50;99.90;;;;;;6125700;23;20021;-78
2024/02/19 03:44:06;;;;;;;0.88;0.70;;;7.50;99.90;;;;;;6101452;23;20346;-77
2024/02/19 03:46:32;;;;;;;0.68;0.68;;;7.50;99.90;;;;;;6126116;23;20092;-78
2024/02/19 03:48:58;;;;;;;0.50;0.50;;;7.70;99.90;;;;;;6126502;23;20009;-78
2024/02/19 03:51:24;;;;;;;0.50;0.50;;;7.60;99.90;;;;;;6101792;23;20024;-78
2024/02/19 03:53:49;;;;;;;0.50;0.50;;;7.60;99.90;;;;;;6125635;23;20013;-78
2024/02/19 03:56:15;;;;;;;0.65;0.65;;;7.60;99.90;;;;;;6125848;23;20025;-78
2024/02/19 03:58:41;;;;;;;0.40;0.40;;;7.50;99.90;;;;;;6151914;23;20021;-78
2024/02/19 04:01:06;;;;;;;0.60;0.60;;;7.60;99.90;;;;;;6101876;23;20355;-78
2024/02/19 04:03:32;;;;;;;0.40;0.40;;;7.60;99.90;;;;;;6126063;23;20056;-78
2024/02/19 04:05:58;;;;;;;0.30;0.30;;;7.60;99.90;;;;;;6086503;23;20049;-77
2024/02/19 04:08:23;;;;;;;0.50;0.50;;;7.60;99.90;;;;;;6146235;23;20195;-78
2024/02/19 04:10:49;;;;;;;0.40;0.40;;;7.50;99.90;;;;;;6125300;23;20014;-78
2024/02/19 04:13:15;;;;;;;0.73;0.73;;;7.50;99.90;;;;;;6125276;23;20478;-78
2024/02/19 04:15:41;;;;;;;0.40;0.40;;;7.50;99.90;;;;;;6100705;23;20021;-78
2024/02/19 04:18:06;;;;;;;0.40;0.40;;;7.40;99.90;;;;;;6100823;23;20021;-77
2024/02/19 04:20:32;;;;;;;4.80;1.73;;;7.40;99.90;;;;;;6125960;23;20017;-78
2024/02/19 04:22:58;;;;;;;0.40;0.40;;;7.30;99.90;;;;;;6099857;23;20017;-78
2024/02/19 04:25:25;;;;;;;0.40;0.40;;;7.30;99.90;;;;;;6099866;23;20021;-78
2024/02/19 04:27:52;;;;;;;0.40;0.40;;;7.30;99.90;;;;;;6150283;23;20084;-77
2024/02/19 04:30:17;;;;;;;0.60;0.60;;;7.30;99.90;;;;;;6099660;23;20017;-77
2024/02/19 04:32:43;;;;;;;0.50;0.50;;;7.30;99.90;;;;;;6123144;23;20025;-78
2024/02/19 04:35:09;;;;;;;0.32;0.32;;;7.30;99.90;;;;;;6123855;23;20112;-78
2024/02/19 04:37:34;;;;;;;0.50;0.50;;;7.30;99.90;;;;;;6099763;23;20024;-78
2024/02/19 04:40:02;;;;;;;1.48;1.48;;;7.30;99.90;;;;;;6125624;23;20451;-78
2024/02/19 04:42:28;;;;;;;0.40;0.40;;;7.40;99.90;;;;;;6125160;23;20017;-77
2024/02/19 04:44:53;;;;;;;0.50;0.50;;;7.30;99.90;;;;;;6100383;23;20072;-77
2024/02/19 04:47:19;;;;;;;0.43;0.43;;;7.40;99.90;;;;;;6151489;23;20014;-77
2024/02/19 04:49:46;;;;;;;0.60;0.60;;;7.30;99.90;;;;;;6100532;23;20087;-77
2024/02/19 04:52:12;;;;;;;0.50;0.50;;;7.40;99.90;;;;;;6151154;23;20454;-77
2024/02/19 04:54:38;;;;;;;0.43;0.43;;;7.30;99.90;;;;;;6100569;23;20113;-78
2024/02/19 04:57:04;;;;;;;0.70;0.70;;;7.30;99.90;;;;;;6100646;23;20107;-77
2024/02/19 04:59:30;;;;;;;0.80;0.80;;;7.30;99.90;;;;;;6125259;23;20021;-77
2024/02/19 05:01:56;;;;;;;0.65;0.65;;;7.30;99.90;;;;;;6124537;23;20025;-77
2024/02/19 05:04:23;;;;;;;0.47;0.47;;;7.30;99.90;;;;;;6125267;23;20100;-77
2024/02/19 05:06:49;;;;;;;0.50;0.50;;;7.30;99.90;;;;;;6100822;23;20017;-77
2024/02/19 05:09:14;;;;;;;;;;;7.30;99.90;;;;;;6149787;23;20492;-78
2024/02/19 05:11:40;;;;;;;0.40;0.40;;;7.40;99.90;;;;;;6125025;23;19920;-77
2024/02/19 05:14:06;;;;;;;6.63;2.28;;;7.40;99.90;;;;;;6099125;23;20451;-78
2024/02/19 05:16:32;;;;;;;0.47;0.47;;;7.40;99.90;;;;;;6125222;23;20029;-78
2024/02/19 05:18:59;;;;;;;0.85;0.82;;;7.40;99.90;;;;;;6125221;23;20021;-77
2024/02/19 05:21:26;;;;;;;0.60;0.60;;;7.50;99.90;;;;;;6124937;23;20024;-78
2024/02/19 05:23:51;;;;;;;;;;;7.40;99.90;;;;;;6100923;23;20381;-77
2024/02/19 05:26:27;;;;;;;0.50;0.50;;;7.50;99.90;;;;;;6100221;23;19916;-77
2024/02/19 05:28:56;;;;;;;0.47;0.47;;;7.50;99.90;;;;;;6150804;23;20009;-77
2024/02/19 05:31:32;;;;;;;0.60;0.60;;;7.50;99.90;;;;;;6125330;23;20020;-77
2024/02/19 05:33:58;;;;;;;0.50;0.50;;;7.50;99.90;;;;;;6124625;23;20009;-78
2024/02/19 05:36:24;;;;;;;0.38;0.38;;;7.50;99.90;;;;;;6151464;23;20024;-78
2024/02/19 05:38:50;;;;;;;0.50;0.50;;;7.60;99.90;;;;;;6124910;23;20013;-77
2024/02/19 05:41:16;;;;;;;;;;;7.50;99.90;;;;;;6152154;23;20089;-77
2024/02/19 05:43:42;;;;;;;0.63;0.63;;;7.50;99.90;;;;;;6100440;23;20003;-77
2024/02/19 05:46:08;;;;;;;0.50;0.50;;;7.50;99.90;;;;;;6124274;23;20017;-77
2024/02/19 05:48:34;;;;;;;;;;;7.50;99.90;;;;;;6096158;23;20009;-77
2024/02/19 05:51:03;;;;;;;0.35;0.35;;;7.50;99.90;;;;;;6124731;23;19955;-77
2024/02/19 05:53:29;;;;;;;0.75;0.75;;;7.50;99.90;;;;;;6101438;23;20020;-78
2024/02/19 05:55:55;;;;;;;;;;;7.50;99.90;;;;;;6124527;23;20505;-77
2024/02/19 05:58:21;;;;;;;0.50;0.50;;;7.60;99.90;;;;;;6124326;23;19917;-77
2024/02/19 06:00:47;;;;;;;3.25;2.95;;;7.60;99.90;;;;;;6124692;23;20459;-77
2024/02/19 06:03:13;;;;;;;0.40;0.40;;;7.50;99.90;;;;;;6113168;23;20029;-77
2024/02/19 06:05:40;;;;;;;0.35;0.35;;;7.60;99.90;;;;;;6122983;23;20020;-76
2024/02/19 06:08:06;;;;;;;0.50;0.50;;;7.60;99.90;;;;;;6124437;23;20021;-77
2024/02/19 06:10:32;;;;;;;0.55;0.55;;;7.60;99.90;;;;;;6100453;23;20017;-77
2024/02/19 06:12:58;;;;;;;0.60;0.60;;;7.50;99.90;;;;;;6124017;23;20056;-77
2024/02/19 06:15:24;;;;;;;0.35;0.35;;;7.50;99.90;;;;;;6076712;23;20096;-77
2024/02/19 06:17:51;;;;;;;0.50;0.50;;;7.50;99.90;;;;;;6151619;23;20016;-77
2024/02/19 06:20:16;;;;;;;0.40;0.40;;;7.60;99.90;;;;;;6099889;23;20029;-78
2024/02/19 06:22:42;;;;;;;0.40;0.40;;;7.60;99.90;;;;;;6125392;23;20017;-77
2024/02/19 06:25:10;;;;;;;0.40;0.40;;;7.60;99.90;;;;;;6125186;23;20088;-79
2024/02/19 06:27:35;;;;;;;2.33;2.13;;;7.60;99.90;;;;;;6124720;23;20025;-78
2024/02/19 06:30:02;;;;;;;1.30;1.30;;;7.60;99.90;;;;;;6150712;23;20017;-77
2024/02/19 06:32:27;;;;;;;1.33;0.90;;;7.60;99.90;;;;;;6150001;23;20670;-78
2024/02/19 06:34:53;;;;;;;0.50;0.50;;;7.60;99.90;;;;;;6124630;23;20018;-78
2024/02/19 06:37:19;;;;;;;1.13;1.02;;;7.60;99.90;;;;;;6100611;23;20100;-79
2024/02/19 06:39:44;;;;;;;1.15;1.05;;;7.70;99.90;;;;;;6125490;23;20018;-79
2024/02/19 06:42:10;;;;;;;0.55;0.45;;;7.70;99.90;;;;;;6087952;23;20018;-80
2024/02/19 06:44:36;;;;;;;0.77;0.77;;;7.90;99.90;;;;;;6123025;23;20024;-78
2024/02/19 06:47:02;;;;;;;0.50;0.50;;;7.70;99.90;;;;;;6123749;23;20048;-79
2024/02/19 06:49:28;;;;;;;;;;;7.70;99.90;;;;;;6125075;23;20013;-78
2024/02/19 06:51:53;;;;;;;0.90;0.82;;;7.70;99.90;;;;;;6124938;23;20389;-79
2024/02/19 06:54:19;;;;;;;0.57;0.57;;;7.70;99.90;;;;;;6123988;23;20407;-78
2024/02/19 06:56:45;;;;;;;0.40;0.40;;;7.70;99.90;;;;;;6151135;23;20128;-78
2024/02/19 06:59:11;;;;;;;;;;;7.70;99.90;;;;;;6125513;23;20030;-79
2024/02/19 07:01:38;;;;;;;0.57;0.57;;;7.70;99.90;;;;;;6124815;23;19912;-78
2024/02/19 07:04:05;;;;;;;0.50;0.50;;;7.80;99.90;;;;;;6099810;23;20051;-77
2024/02/19 07:06:31;;;;;;;0.40;0.40;;;7.70;99.90;;;;;;6143368;23;20376;-76
2024/02/19 07:08:57;;;;;;;1.67;0.73;;;7.80;99.90;;;;;;6143829;23;20084;-77
2024/02/19 07:11:23;;;;;;;0.60;0.60;;;7.80;99.90;;;;;;6100317;23;20525;-77
2024/02/19 07:13:51;;;;;;;0.40;0.40;;;7.80;99.90;;;;;;6102177;23;20017;-76
2024/02/19 07:16:17;;;;;;;0.57;0.57;;;7.80;99.90;;;;;;6126046;23;20013;-77
2024/02/19 07:18:43;;;;;;;0.38;0.38;;;7.80;99.90;;;;;;6125937;23;20049;-77
2024/02/19 07:21:08;;;;;;;0.60;0.60;;;7.90;99.90;;;;;;6123510;23;20410;-76
2024/02/19 07:23:34;;;;;;;1.42;1.33;;;7.80;99.90;;;;;;6126297;23;20021;-77
2024/02/19 07:26:00;;;;;;;1.05;1.05;;;7.80;99.90;;;;;;6125910;23;20022;-78
2024/02/19 07:28:26;;;;;;;0.60;0.60;;;7.90;99.90;;;;;;6126746;23;20013;-77
2024/02/19 07:30:52;;;;;;;0.40;0.40;;;7.90;99.90;;;;;;6127328;23;20010;-79
2024/02/19 07:33:17;;;;;;;0.50;0.50;;;7.90;99.90;;;;;;6126334;23;20036;-78
2024/02/19 07:35:43;;;;;;;0.57;0.57;;;8.00;99.90;;;;;;6100934;23;20053;-78
2024/02/19 07:38:09;;;;;;;0.80;0.80;;;8.00;99.90;;;;;;6101815;23;20018;-77
2024/02/19 07:40:35;;;;;;;0.47;0.47;;;7.90;99.90;;;;;;6126889;23;20028;-77
2024/02/19 07:43:01;;;;;;;0.50;0.50;;;8.10;99.90;;;;;;6126616;23;20060;-78
2024/02/19 07:45:27;;;;;;;0.50;0.50;;;8.10;99.90;;;;;;6102721;23;20021;-79
2024/02/19 07:47:53;;;;;;;0.68;0.68;;;8.10;99.90;;;;;;6153861;23;20014;-75
2024/02/19 07:50:19;;;;;;;0.50;0.50;;;8.10;99.90;;;;;;6100262;23;20020;-76
2024/02/19 07:52:46;;;;;;;0.47;0.47;;;8.20;99.90;;;;;;6126061;23;20649;-76
2024/02/19 07:55:12;;;;;;;0.70;0.70;;;8.10;99.90;;;;;;6101535;23;20017;-75
2024/02/19 07:57:37;;;;;;;0.50;0.50;;;8.10;99.90;;;;;;6126497;23;20068;-76
2024/02/19 08:00:05;;;;;;;0.50;0.50;;;8.20;99.90;;;;;;6126123;23;20022;-77
2024/02/19 08:02:30;;;;;;;0.57;0.57;;;8.70;99.90;;;;;;6101632;23;20052;-76
2024/02/19 08:04:56;;;;;;;0.98;0.98;;;8.20;99.90;;;;;;6151211;23;20013;-76
2024/02/19 08:07:22;;;;;;;0.75;0.75;;;8.30;99.90;;;;;;6101867;23;20026;-76
2024/02/19 08:09:48;;;;;;;0.60;0.60;;;8.30;99.90;;;;;;6102048;23;20013;-76
2024/02/19 08:12:13;;;;;;;0.50;0.50;;;8.30;99.90;;;;;;6125566;23;20534;-76
2024/02/19 08:14:39;;;;;;;2.53;2.40;;;8.30;99.90;;;;;;6098453;23;20018;-75
2024/02/19 08:17:05;;;;;;;0.50;0.50;;;8.30;99.90;;;;;;6151314;23;20022;-76
2024/02/19 08:19:30;;;;;;;0.40;0.40;;;8.30;99.90;;;;;;6124412;23;20347;-76
2024/02/19 08:21:57;;;;;;;0.40;0.40;;;8.30;99.90;;;;;;6150126;23;20213;-76
2024/02/19 08:24:24;;;;;;;0.65;0.65;;;8.30;99.90;;;;;;6125180;23;20025;-77
2024/02/19 08:26:49;;;;;;;;;;;8.40;99.90;;;;;;6102410;23;20013;-76
2024/02/19 08:29:15;;;;;;;8.90;0.98;;;8.50;99.90;;;;;;6151961;23;19923;-77
2024/02/19 08:31:41;;;;;;;0.40;0.40;;;8.60;99.90;;;;;;6101393;23;20057;-76
2024/02/19 08:34:07;;;;;;;0.68;0.68;;;8.70;99.90;;;;;;6126009;23;20479;-76
2024/02/19 08:36:33;;;;;;;0.45;0.45;;;8.80;99.90;;;;;;6119734;23;20025;-77
2024/02/19 08:38:58;;;;;;;1.08;1.08;;;8.90;99.90;;;;;;6126157;23;20021;-76
2024/02/19 08:41:24;;;;;;;0.35;0.35;;;8.90;99.90;;;;;;6122141;23;20071;-76
2024/02/19 08:43:50;;;;;;;0.57;0.57;;;8.90;99.90;;;;;;6125571;23;20018;-77
2024/02/19 08:46:16;;;;;;;0.30;0.30;;;8.90;99.90;;;;;;6126105;23;20014;-77
2024/02/19 08:48:42;;;;;;;9.43;2.67;;;9.00;99.90;;;;;;6101264;23;20076;-76
2024/02/19 08:51:08;;;;;;;0.50;0.50;;;9.00;99.90;;;;;;6149388;23;20546;-75
2024/02/19 08:53:34;;;;;;;0.40;0.40;;;9.00;99.90;;;;;;6125038;23;20056;-75
2024/02/19 08:56:00;;;;;;;;;;;9.00;99.90;;;;;;6101649;23;20049;-76
2024/02/19 08:58:26;;;;;;;0.60;0.60;;;9.10;99.90;;;;;;6123639;23;19916;-76
2024/02/19 09:00:51;;;;;;;1.85;1.73;;;9.10;99.90;;;;;;6150974;23;20025;-77
2024/02/19 09:03:17;;;;;;;0.40;0.40;;;9.10;99.90;;;;;;6125151;23;20052;-77
2024/02/19 09:05:43;;;;;;;;;;;9.20;99.90;;;;;;6147006;23;20051;-77
2024/02/19 09:08:10;;;;;;;0.50;0.50;;;9.20;99.90;;;;;;6124003;23;19916;-76
2024/02/19 09:10:36;;;;;;;0.40;0.40;;;9.20;99.90;;;;;;6120017;23;20084;-77
2024/02/19 09:13:02;;;;;;;;;;;9.20;99.90;;;;;;6097222;23;20032;-76
2024/02/19 09:15:28;;;;;;;0.40;0.40;;;9.30;99.90;;;;;;6147615;23;20323;-78
2024/02/19 09:17:54;;;;;;;0.50;0.50;;;9.30;99.90;;;;;;6118807;23;20483;-80
2024/02/19 09:20:19;;;;;;;0.40;0.40;;;9.40;99.90;;;;;;6115134;23;20013;-77
2024/02/19 09:22:45;;;;;;;0.73;0.73;;;9.40;99.90;;;;;;6093510;23;20029;-76
2024/02/19 09:25:12;;;;;;;0.70;0.70;;;9.50;99.90;;;;;;6091137;23;20021;-75
2024/02/19 09:27:38;;;;;;;1.67;0.85;;;9.60;99.90;;;;;;6144827;23;20022;-77
2024/02/19 09:30:04;;;;;;;0.30;0.30;;;9.60;99.90;;;;;;6116491;23;20483;-77
2024/02/19 09:32:30;;;;;;;0.30;0.30;;;9.70;99.90;;;;;;6092174;23;20048;-76
2024/02/19 09:34:56;;;;;;;0.30;0.30;;;9.70;99.90;;;;;;6141621;23;20092;-76
2024/02/19 09:37:25;;;;;;;0.68;0.65;;;9.70;99.90;;;;;;6094290;23;20028;-75
2024/02/19 09:39:58;;;;;;;0.60;0.60;;;9.70;99.90;;;;;;6146052;23;20534;-74
2024/02/19 09:42:26;;;;;;;0.50;0.50;;;9.70;99.90;;;;;;6094277;23;20101;-76
2024/02/19 09:44:52;;;;;;;0.60;0.60;;;9.60;99.90;;;;;;6121628;23;20101;-77
2024/02/19 09:47:20;;;;;;;0.40;0.40;;;9.50;99.90;;;;;;6097114;23;20017;-77
2024/02/19 09:49:48;;;;;;;0.32;0.32;;;9.40;99.90;;;;;;6098064;23;20096;-76
2024/02/19 09:52:21;;;;;;;0.98;0.95;;;9.40;99.90;;;;;;6150472;23;20014;-76
2024/02/19 09:54:48;;;;;;;0.63;0.63;;;9.40;99.90;;;;;;6150430;23;20089;-75
2024/02/19 09:57:14;;;;;;;0.40;0.40;;;9.30;99.90;;;;;;6124114;23;20021;-77
2024/02/19 09:59:44;;;;;;;0.40;0.40;;;9.40;99.90;;;;;;6099884;23;20021;-77
2024/02/19 10:02:11;;;;;;;0.77;0.77;;;9.40;99.90;;;;;;6150679;23;20018;-76
2024/02/19 10:04:38;;;;;;;0.40;0.40;;;9.50;99.90;;;;;;6150051;23;20024;-76
2024/02/19 10:07:04;;;;;;;0.82;0.68;;;9.40;99.90;;;;;;6122729;23;20028;-76
2024/02/19 10:09:30;;;;;;;1.42;1.33;;;9.50;99.90;;;;;;6124728;23;20045;-76
2024/02/19 10:11:57;;;;;;;;;;;9.40;99.90;;;;;;6099729;23;20347;-76
2024/02/19 10:14:23;;;;;;;3.10;2.92;;;9.40;99.90;;;;;;6148542;23;19924;-76
2024/02/19 10:16:52;;;;;;;0.55;0.55;;;9.40;99.90;;;;;;6150689;23;20527;-76
2024/02/19 10:19:19;;;;;;;0.98;0.98;;;9.40;99.90;;;;;;6150563;23;20025;-76
2024/02/19 10:21:48;;;;;;;;;;;9.50;99.90;;;;;;6121418;23;20048;-76
2024/02/19 10:24:17;;;;;;;0.30;0.30;;;9.40;99.90;;;;;;6124445;23;19916;-74
2024/02/19 10:26:44;;;;;;;0.45;0.45;;;9.40;99.90;;;;;;6123875;23;20267;-76
2024/02/19 10:29:10;;;;;;;0.40;0.40;;;9.40;99.90;;;;;;6149490;23;20324;-76
2024/02/19 10:31:36;;;;;;;0.65;0.65;;;9.50;99.90;;;;;;6099022;23;20076;-77
2024/02/19 10:34:02;;;;;;;0.60;0.60;;;9.50;99.90;;;;;;6120519;23;20017;-76
2024/02/19 10:36:28;;;;;;;0.85;0.85;;;9.60;99.90;;;;;;6093883;23;20017;-77
2024/02/19 10:38:54;;;;;;;;;;;9.60;99.90;;;;;;6147766;23;20013;-76
2024/02/19 10:41:23;;;;;;;0.32;0.32;;;9.70;99.90;;;;;;6120776;23;19938;-76
2024/02/19 10:43:51;;;;;;;0.50;0.50;;;9.80;99.90;;;;;;6123967;23;20025;-77
2024/02/19 10:46:23;;;;;;;0.88;0.73;;;9.80;99.90;;;;;;6125145;23;20017;-77
2024/02/19 10:48:51;;;;;;;0.60;0.60;;;9.80;99.90;;;;;;6125612;23;20017;-75
2024/02/19 10:51:19;;;;;;;0.50;0.50;;;9.80;99.90;;;;;;6121751;23;20010;-75
2024/02/19 10:53:46;;;;;;;1.77;1.67;;;9.70;99.90;;;;;;6100410;23;20025;-76
2024/02/19 10:56:19;;;;;;;0.52;0.52;;;9.80;99.90;;;;;;6125784;23;20477;-74
2024/02/19 10:59:03;;;;;;;0.50;0.50;;;9.70;99.90;;;;;;6101438;23;20455;-75
2024/02/19 11:01:46;;;;;;;0.57;0.50;;;9.70;99.90;;;;;;6123806;23;20025;-75
2024/02/19 11:04:15;;;;;;;1.05;0.95;;;9.60;99.90;;;;;;6152518;23;20017;-76
2024/02/19 11:06:55;;;;;;;0.95;0.60;;;9.50;99.90;;;;;;6150087;23;20056;-75
2024/02/19 11:09:22;;;;;;;0.60;0.60;;;9.50;99.90;;;;;;6101842;23;20350;-76
2024/02/19 11:11:56;;;;;;;0.50;0.50;;;9.40;99.90;;;;;;6125755;23;20014;-76
2024/02/19 11:14:36;;;;;;;0.60;0.60;;;9.40;99.90;;;;;;6100950;23;20433;-75
2024/02/19 11:17:02;;;;;;;0.40;0.40;;;9.40;99.90;;;;;;6151826;23;20033;-75
2024/02/19 11:19:29;;;;;;;1.75;0.82;;;9.50;99.90;;;;;;6102104;23;20021;-76
2024/02/19 11:22:04;;;;;;;0.57;0.57;;;9.60;99.90;;;;;;6099331;23;20018;-75
2024/02/19 11:24:31;;;;;;;0.47;0.47;;;9.70;99.90;;;;;;6126189;23;20018;-76
2024/02/19 11:26:57;;;;;;;0.90;0.90;;;9.70;99.90;;;;;;6125322;23;20355;-75
2024/02/19 11:29:23;;;;;;;;;;;9.70;99.90;;;;;;6152525;23;20027;-75
2024/02/19 11:32:02;;;;;;;0.40;0.40;;;9.70;99.90;;;;;;6123925;23;20246;-75
2024/02/19 11:34:28;;;;;;;0.40;0.40;;;9.60;99.90;;;;;;6101756;23;20312;-75
2024/02/19 11:37:04;;;;;;;;;;;9.60;99.90;;;;;;6124817;23;20028;-76
2024/02/19 11:39:31;;;;;;;0.40;0.40;;;9.60;99.90;;;;;;6126376;23;19948;-76
2024/02/19 11:41:58;;;;;;;0.45;0.45;;;9.60;99.90;;;;;;6124111;23;20028;-76
2024/02/19 11:44:24;;;;;;;1.13;0.98;;;9.70;99.90;;;;;;6101132;23;20036;-75
2024/02/19 11:46:51;;;;;;;0.80;0.80;;;9.70;99.90;;;;;;6099705;23;20013;-76
2024/02/19 11:49:18;;;;;;;0.40;0.40;;;9.80;99.90;;;;;;6123353;23;20316;-75
2024/02/19 11:51:44;;;;;;;;;;;9.80;99.90;;;;;;6124002;23;20056;-75
2024/02/19 11:54:11;;;;;;;0.83;0.83;;;9.90;99.90;;;;;;6124822;23;19913;-75
2024/02/19 11:56:50;;;;;;;0.50;0.50;;;9.90;99.90;;;;;;6151376;23;20021;-75
2024/02/19 11:59:16;;;;;;;0.32;0.32;;;9.90;99.90;;;;;;6124677;23;20032;-75
2024/02/19 12:01:51;;;;;;;1.17;1.17;;;9.80;99.90;;;;;;6123042;23;20422;-74
2024/02/19 12:04:17;;;;;;;0.40;0.40;;;9.80;99.90;;;;;;6124159;23;20410;-75
2024/02/19 12:06:43;;;;;;;;;;;9.80;99.90;;;;;;6123293;23;20028;-75
2024/02/19 12:09:09;;;;;;;0.60;0.60;;;9.80;99.90;;;;;;6101522;23;19920;-75
2024/02/19 12:11:35;;;;;;;0.75;0.75;;;9.70;99.90;;;;;;6125500;23;20010;-75
2024/02/19 12:14:04;;;;;;;;;;;9.70;99.90;;;;;;6148663;23;20481;-75
2024/02/19 12:16:30;;;;;;;0.50;0.50;;;9.70;99.90;;;;;;6100343;23;19917;-75
2024/02/19 12:18:56;;;;;;;0.60;0.60;;;9.70;99.90;;;;;;6124980;23;20395;-74
2024/02/19 12:21:22;;;;;;;0.40;0.40;;;9.60;99.90;;;;;;6100035;23;20025;-74
2024/02/19 12:23:52;;;;;;;0.70;0.68;;;9.60;99.90;;;;;;6123710;23;20028;-76
2024/02/19 12:26:22;;;;;;;0.80;0.80;;;9.60;99.90;;;;;;6125310;23;20017;-74
2024/02/19 12:28:49;;;;;;;2.60;2.40;;;9.60;99.90;;;;;;6124267;23;20431;-75
2024/02/19 12:31:18;;;;;;;0.40;0.40;;;9.60;99.90;;;;;;6148878;23;20569;-75
2024/02/19 12:33:44;;;;;;;0.93;0.60;;;9.60;99.90;;;;;;6124881;23;20013;-75
2024/02/19 12:36:12;;;;;;;30.60;2.83;;;9.60;99.90;;;;;;6147674;23;20017;-75
2024/02/19 12:38:50;;;;;;;0.40;0.40;;;9.60;99.90;;;;;;6126071;23;20025;-75
2024/02/19 12:41:16;;;;;;;0.40;0.40;;;9.50;99.90;;;;;;6100773;23;20096;-75
2024/02/19 12:43:46;;;;;;;0.60;0.60;;;9.60;99.90;;;;;;6151568;23;20408;-75
2024/02/19 12:46:15;;;;;;;0.45;0.45;;;9.60;99.90;;;;;;6099605;23;20029;-75
2024/02/19 12:48:42;;;;;;;1.17;0.70;;;9.60;99.90;;;;;;6125116;23;20014;-75
2024/02/19 12:51:10;;;;;;;0.50;0.50;;;9.60;99.90;;;;;;6147898;23;20079;-75
2024/02/19 12:53:36;;;;;;;0.40;0.40;;;9.60;99.90;;;;;;6100141;23;20014;-76
2024/02/19 12:56:06;;;;;;;0.73;0.73;;;9.60;99.90;;;;;;6122466;23;20546;-76
2024/02/19 12:58:32;;;;;;;0.25;0.25;;;9.60;99.90;;;;;;6096513;23;20018;-75
2024/02/19 13:00:58;;;;;;;0.50;0.50;;;9.60;99.90;;;;;;6094823;23;20025;-75